Airfield :
LOGIN :

Register | Disclaimer

   EN    FR    IT 

 










Legend :    VFR   Marginal VFR   IFR   Intensive IFR   Very Intensive IFR
Visi :
Ceiling :
>= 8 km
>= 3000ft
5 to 8 km
1000 to 3000 ft
1500m to 5 km
500 to 1000 ft
800 to 1500m
200 to 500 ft
< 800m
< 200 ft
Symbols :   Thunderstorms  Fog  Heavy snow  Heavy precipitations  Wind > 20 kt
SIGMETs :     Misc.  Thunderstorms  Icing  Turbulence  Mountain Waves  Volcanic Ashes







- Airport Elevation : 82 ft
- IATA code : AAR


EKAH - Aarhus Tirstrup

CURRENT METAR :
  • 240350Z AUTO 18001KT 9000NDV NCD M01/M02 Q1035

EXPIRED METARs :
  • 240320Z AUTO 16003KT 9000NDV NCD M00/M02 Q1036
  • 240250Z AUTO 20001KT 9999NDV FEW210/// 01/M02 Q1036
  • 240220Z AUTO 30003KT 9999NDV BKN210/// 01/M01 Q1036
  • 240150Z AUTO 24001KT 9999NDV NCD 01/M02 Q1036
  • 240120Z AUTO 13001KT 9999NDV NCD 02/M01 Q1037

TAF TAF EKAH
Valid from the 24 at 00:00 until the 25 at 00:00 UTC


232312Z 2400/2424 23005KT CAVOK
BECMG 2412/2414 BKN010
TEMPO 2414/2418 BKN006
BECMG 2418/2420 1500 BR BKN003
TEMPO 2420/2424 0300 FG VV001
No reported NOTAMs for that airfield.



MET'MAP, your aeronautical weather chart ! - Copyright ORBIFLY December 2007 - Disclaimer

ORBIFLY MET'MAP TEAM :

Programming & Development : Alexandra Zaïnal
Concept & Development : Baudouin d'Aumeries
Co-Development & Prog : Marc-Olivier Méhu
Technical & hardware support : Manuel Goepfert

Contact : metmap@orbifly.com




SOURCES & CREDITS :

   NOAA